This is the latest recevied weather packets stored in our database for station/object DL9NEE-10. If no packets are shown the sender has not sent any weather packets the latest 10 day(s).
| Time | Temp. | Humidity | Pressure | Rain* | Wind** | Luminosity | Snow |
|---|---|---|---|---|---|---|---|
| 1777978473 | 31.67° C | 36% | 1008.5 hPa | - | - | - | - |
| 1777977573 | 30.56° C | 39% | 1008.7 hPa | - | - | - | - |
| 1777976673 | 27.78° C | 39% | 1008.8 hPa | - | - | - | - |
| 1777975773 | 27.22° C | 41% | 1008.9 hPa | - | - | - | - |
| 1777974872 | 26.11° C | 43% | 1009 hPa | - | - | - | - |
| 1777973972 | 26.11° C | 42% | 1009 hPa | - | - | - | - |
| 1777973072 | 25.56° C | 47% | 1009.2 hPa | - | - | - | - |
| 1777972172 | 24.44° C | 48% | 1009.4 hPa | - | - | - | - |
| 1777971272 | 23.89° C | 50% | 1009.5 hPa | - | - | - | - |
| 1777970372 | 23.33° C | 51% | 1009.7 hPa | - | - | - | - |
| 1777969472 | 22.78° C | 52% | 1009.8 hPa | - | - | - | - |
| 1777968571 | 22.22° C | 53% | 1009.9 hPa | - | - | - | - |
| 1777967671 | 21.67° C | 54% | 1010 hPa | - | - | - | - |
| 1777966771 | 21.11° C | 55% | 1010.1 hPa | - | - | - | - |
| 1777965871 | 20.56° C | 56% | 1010.4 hPa | - | - | - | - |
| 1777964971 | 19.44° C | 58% | 1010.6 hPa | - | - | - | - |
| 1777964071 | 18.89° C | 59% | 1010.6 hPa | - | - | - | - |
| 1777963171 | 18.33° C | 60% | 1010.6 hPa | - | - | - | - |
| 1777962270 | 17.78° C | 60% | 1010.6 hPa | - | - | - | - |
| 1777961370 | 17.78° C | 60% | 1010.8 hPa | - | - | - | - |
| 1777960470 | 17.22° C | 60% | 1010.7 hPa | - | - | - | - |
| 1777959570 | 17.22° C | 60% | 1010.7 hPa | - | - | - | - |
| 1777958670 | 17.78° C | 60% | 1010.6 hPa | - | - | - | - |
| 1777957770 | 17.78° C | 59% | 1010.5 hPa | - | - | - | - |
| 1777956870 | 17.22° C | 59% | 1010.6 hPa | - | - | - | - |
* Rain since midnight (hover to see other rain measurements)
** Current wind speed in m/s (hover to see current wind gust speed)